sensor_id;sensor_type;location;lat;lon;timestamp;pressure;altitude;pressure_sealevel;temperature;humidity
59831;BME280;45711;50.108;13.712;2023-03-18T06:29:42;97758.25;;;0.67;85.63
59831;BME280;45711;50.108;13.712;2023-03-18T06:32:08;97756.69;;;0.59;86.14
59831;BME280;45711;50.108;13.712;2023-03-18T06:34:39;97757.13;;;0.56;87.25
59831;BME280;45711;50.108;13.712;2023-03-18T06:37:05;97756.78;;;0.53;86.86
59831;BME280;45711;50.108;13.712;2023-03-18T06:39:31;97763.41;;;0.55;86.39
59831;BME280;45711;50.108;13.712;2023-03-18T06:42:05;97763.94;;;0.64;87.18
59831;BME280;45711;50.108;13.712;2023-03-18T06:44:36;97765.25;;;0.73;87.19
59831;BME280;45711;50.108;13.712;2023-03-18T06:47:10;97765.78;;;0.82;85.43
59831;BME280;45711;50.108;13.712;2023-03-18T06:49:39;97765.06;;;0.74;85.27
59831;BME280;45711;50.108;13.712;2023-03-18T06:52:08;97776.81;;;0.90;85.26
59831;BME280;45711;50.108;13.712;2023-03-18T06:54:36;97785.25;;;0.99;85.62
59831;BME280;45711;50.108;13.712;2023-03-18T06:57:10;97783.19;;;1.19;84.23
59831;BME280;45711;50.108;13.712;2023-03-18T06:59:50;97772.03;;;1.17;85.22
59831;BME280;45711;50.108;13.712;2023-03-18T07:02:19;97772.19;;;1.41;83.37
59831;BME280;45711;50.108;13.712;2023-03-18T07:04:52;97769.63;;;1.64;82.92
59831;BME280;45711;50.108;13.712;2023-03-18T07:07:36;97772.63;;;1.68;82.39
59831;BME280;45711;50.108;13.712;2023-03-18T07:13:21;97765.63;;;2.15;82.00
59831;BME280;45711;50.108;13.712;2023-03-18T07:13:50;97767.34;;;2.68;78.39
59831;BME280;45711;50.108;13.712;2023-03-18T07:16:41;97768.47;;;2.96;77.09
59831;BME280;45711;50.108;13.712;2023-03-18T07:19:09;97763.00;;;2.62;78.52
59831;BME280;45711;50.108;13.712;2023-03-18T07:22:03;97775.28;;;2.92;76.94
59831;BME280;45711;50.108;13.712;2023-03-18T07:24:37;97771.00;;;2.91;78.21
59831;BME280;45711;50.108;13.712;2023-03-18T07:27:16;97777.59;;;3.28;76.36
59831;BME280;45711;50.108;13.712;2023-03-18T07:29:44;97776.09;;;3.33;77.11
59831;BME280;45711;50.108;13.712;2023-03-18T07:32:28;97783.50;;;3.47;76.96
59831;BME280;45711;50.108;13.712;2023-03-18T07:35:16;97782.47;;;4.22;73.60
59831;BME280;45711;50.108;13.712;2023-03-18T07:37:49;97775.44;;;3.99;73.30
59831;BME280;45711;50.108;13.712;2023-03-18T07:40:17;97779.31;;;3.92;73.61
59831;BME280;45711;50.108;13.712;2023-03-18T07:42:48;97785.25;;;4.33;72.97
59831;BME280;45711;50.108;13.712;2023-03-18T07:45:29;97787.44;;;4.36;72.50
59831;BME280;45711;50.108;13.712;2023-03-18T07:48:12;97804.19;;;4.75;74.16
59831;BME280;45711;50.108;13.712;2023-03-18T07:50:51;97807.28;;;5.06;72.02
59831;BME280;45711;50.108;13.712;2023-03-18T07:53:37;97812.16;;;4.75;70.70
59831;BME280;45711;50.108;13.712;2023-03-18T07:56:14;97804.69;;;4.21;71.80
59831;BME280;45711;50.108;13.712;2023-03-18T07:59:13;97811.59;;;5.12;75.35
59831;BME280;45711;50.108;13.712;2023-03-18T08:01:38;97799.72;;;6.12;68.15
59831;BME280;45711;50.108;13.712;2023-03-18T08:04:11;97801.97;;;6.25;67.13
59831;BME280;45711;50.108;13.712;2023-03-18T08:10:28;97809.53;;;6.44;65.29
59831;BME280;45711;50.108;13.712;2023-03-18T08:13:28;97810.13;;;5.92;66.92
59831;BME280;45711;50.108;13.712;2023-03-18T08:16:06;97807.03;;;6.64;64.26
59831;BME280;45711;50.108;13.712;2023-03-18T08:19:00;97817.78;;;8.05;62.20
59831;BME280;45711;50.108;13.712;2023-03-18T10:50:07;97794.84;;;7.84;66.36
59831;BME280;45711;50.108;13.712;2023-03-18T10:52:44;97802.59;;;9.02;52.65
59831;BME280;45711;50.108;13.712;2023-03-18T10:55:15;97793.94;;;9.36;49.00
59831;BME280;45711;50.108;13.712;2023-03-18T10:57:41;97794.09;;;8.70;61.97
59831;BME280;45711;50.108;13.712;2023-03-18T11:00:24;97800.00;;;8.67;61.03
59831;BME280;45711;50.108;13.712;2023-03-18T11:02:51;97795.69;;;8.76;60.90
59831;BME280;45711;50.108;13.712;2023-03-18T12:49:41;97724.97;;;8.78;54.66
59831;BME280;45711;50.108;13.712;2023-03-18T15:47:54;97668.66;;;9.84;60.87
59831;BME280;45711;50.108;13.712;2023-03-18T15:50:26;97661.84;;;9.97;64.74
59831;BME280;45711;50.108;13.712;2023-03-18T15:53:01;97674.34;;;10.06;59.23
59831;BME280;45711;50.108;13.712;2023-03-18T15:55:28;97669.84;;;10.02;67.47
59831;BME280;45711;50.108;13.712;2023-03-18T15:57:55;97673.19;;;10.47;57.20
59831;BME280;45711;50.108;13.712;2023-03-18T16:00:21;97664.44;;;10.65;60.05
59831;BME280;45711;50.108;13.712;2023-03-18T16:02:47;97668.91;;;10.70;54.27
59831;BME280;45711;50.108;13.712;2023-03-18T16:05:30;97669.84;;;10.84;53.94
59831;BME280;45711;50.108;13.712;2023-03-18T16:08:02;97676.59;;;10.52;61.43
59831;BME280;45711;50.108;13.712;2023-03-18T16:10:27;97668.47;;;10.87;53.44
59831;BME280;45711;50.108;13.712;2023-03-18T16:12:56;97676.38;;;10.97;57.76
59831;BME280;45711;50.108;13.712;2023-03-18T16:15:25;97675.81;;;10.52;54.03
59831;BME280;45711;50.108;13.712;2023-03-18T16:17:53;97681.34;;;10.31;63.01
59831;BME280;45711;50.108;13.712;2023-03-18T16:20:22;97679.84;;;10.20;56.90
59831;BME280;45711;50.108;13.712;2023-03-18T16:22:49;97682.72;;;10.58;53.32
59831;BME280;45711;50.108;13.712;2023-03-18T16:25:15;97682.00;;;10.95;51.17
59831;BME280;45711;50.108;13.712;2023-03-18T16:27:43;97674.69;;;10.82;54.07
59831;BME280;45711;50.108;13.712;2023-03-18T16:30:16;97682.88;;;10.91;50.57
59831;BME280;45711;50.108;13.712;2023-03-18T16:32:43;97682.00;;;10.95;51.25
59831;BME280;45711;50.108;13.712;2023-03-18T16:35:12;97684.97;;;10.46;53.92
59831;BME280;45711;50.108;13.712;2023-03-18T16:37:39;97682.63;;;10.39;52.69
59831;BME280;45711;50.108;13.712;2023-03-18T16:40:13;97678.22;;;10.24;57.96
59831;BME280;45711;50.108;13.712;2023-03-18T16:42:39;97682.22;;;10.22;53.97
59831;BME280;45711;50.108;13.712;2023-03-18T16:45:08;97688.91;;;10.24;55.48
59831;BME280;45711;50.108;13.712;2023-03-18T16:47:37;97682.91;;;10.38;52.91
59831;BME280;45711;50.108;13.712;2023-03-18T16:50:05;97694.50;;;10.23;55.11
59831;BME280;45711;50.108;13.712;2023-03-18T16:52:33;97698.06;;;10.13;60.08
59831;BME280;45711;50.108;13.712;2023-03-18T16:55:00;97697.22;;;9.83;57.63
59831;BME280;45711;50.108;13.712;2023-03-18T16:57:27;97698.44;;;9.67;59.88
59831;BME280;45711;50.108;13.712;2023-03-18T16:59:53;97695.50;;;9.64;60.96
59831;BME280;45711;50.108;13.712;2023-03-18T17:02:30;97697.72;;;9.51;61.84
59831;BME280;45711;50.108;13.712;2023-03-18T17:04:56;97691.03;;;9.49;58.49
59831;BME280;45711;50.108;13.712;2023-03-18T17:07:21;97698.81;;;9.45;56.96
59831;BME280;45711;50.108;13.712;2023-03-18T17:09:47;97707.06;;;9.54;63.06
59831;BME280;45711;50.108;13.712;2023-03-18T17:12:13;97713.22;;;9.49;56.59
59831;BME280;45711;50.108;13.712;2023-03-18T17:14:49;97715.09;;;9.44;57.08
59831;BME280;45711;50.108;13.712;2023-03-18T17:17:21;97720.84;;;9.17;58.80
59831;BME280;45711;50.108;13.712;2023-03-18T17:19:48;97715.88;;;8.95;59.42
59831;BME280;45711;50.108;13.712;2023-03-18T17:22:19;97716.97;;;8.78;59.54
59831;BME280;45711;50.108;13.712;2023-03-18T17:24:45;97719.38;;;8.75;59.54
59831;BME280;45711;50.108;13.712;2023-03-18T17:27:16;97726.66;;;8.54;59.20
59831;BME280;45711;50.108;13.712;2023-03-18T17:29:45;97724.25;;;8.32;60.77
59831;BME280;45711;50.108;13.712;2023-03-18T17:32:11;97738.13;;;8.24;62.69
59831;BME280;45711;50.108;13.712;2023-03-18T17:34:36;97725.56;;;8.09;62.19
59831;BME280;45711;50.108;13.712;2023-03-18T17:37:02;97730.06;;;7.83;62.97
59831;BME280;45711;50.108;13.712;2023-03-18T17:39:28;97727.13;;;7.54;64.04
59831;BME280;45711;50.108;13.712;2023-03-18T17:41:54;97734.53;;;7.37;64.64
59831;BME280;45711;50.108;13.712;2023-03-18T17:44:24;97738.47;;;7.24;65.28
59831;BME280;45711;50.108;13.712;2023-03-18T17:46:52;97728.94;;;7.38;64.67
59831;BME280;45711;50.108;13.712;2023-03-18T17:49:27;97723.81;;;7.21;64.58
59831;BME280;45711;50.108;13.712;2023-03-18T17:52:02;97728.50;;;6.94;65.65
59831;BME280;45711;50.108;13.712;2023-03-18T17:54:27;97725.22;;;6.76;66.05
59831;BME280;45711;50.108;13.712;2023-03-18T17:56:55;97725.13;;;6.61;66.53
59831;BME280;45711;50.108;13.712;2023-03-18T17:59:22;97725.69;;;6.68;66.44
59831;BME280;45711;50.108;13.712;2023-03-18T18:01:48;97724.41;;;6.71;66.98
59831;BME280;45711;50.108;13.712;2023-03-18T18:04:17;97725.38;;;6.60;67.22
59831;BME280;45711;50.108;13.712;2023-03-18T18:06:49;97718.13;;;6.45;67.99
59831;BME280;45711;50.108;13.712;2023-03-18T18:09:15;97718.63;;;6.42;67.36
59831;BME280;45711;50.108;13.712;2023-03-18T18:11:42;97722.59;;;6.39;67.18
59831;BME280;45711;50.108;13.712;2023-03-18T18:14:13;97723.31;;;6.67;66.49
59831;BME280;45711;50.108;13.712;2023-03-18T18:16:40;97725.19;;;6.66;66.50
59831;BME280;45711;50.108;13.712;2023-03-18T18:19:07;97722.59;;;6.87;65.69
59831;BME280;45711;50.108;13.712;2023-03-18T18:21:35;97724.88;;;6.63;66.65
59831;BME280;45711;50.108;13.712;2023-03-18T18:24:02;97721.75;;;6.34;67.13
59831;BME280;45711;50.108;13.712;2023-03-18T18:26:28;97718.03;;;5.97;67.63
59831;BME280;45711;50.108;13.712;2023-03-18T18:28:53;97717.53;;;5.73;68.93
59831;BME280;45711;50.108;13.712;2023-03-18T18:31:22;97724.03;;;5.88;69.29
59831;BME280;45711;50.108;13.712;2023-03-18T18:33:49;97723.09;;;5.99;69.13
59831;BME280;45711;50.108;13.712;2023-03-18T18:36:15;97721.78;;;5.74;69.47
59831;BME280;45711;50.108;13.712;2023-03-18T18:38:43;97724.66;;;5.68;69.19
59831;BME280;45711;50.108;13.712;2023-03-18T18:41:09;97727.34;;;5.73;69.27
59831;BME280;45711;50.108;13.712;2023-03-18T18:43:34;97731.84;;;5.72;69.80
59831;BME280;45711;50.108;13.712;2023-03-18T18:46:00;97741.81;;;5.87;69.26
59831;BME280;45711;50.108;13.712;2023-03-18T18:48:28;97741.19;;;6.02;70.50
59831;BME280;45711;50.108;13.712;2023-03-18T18:50:54;97739.06;;;5.77;69.51
59831;BME280;45711;50.108;13.712;2023-03-18T18:53:22;97729.22;;;5.45;71.41
59831;BME280;45711;50.108;13.712;2023-03-18T18:55:51;97730.81;;;5.46;72.08
59831;BME280;45711;50.108;13.712;2023-03-18T18:58:19;97730.75;;;5.41;70.62
59831;BME280;45711;50.108;13.712;2023-03-18T19:00:45;97745.63;;;5.20;71.82
59831;BME280;45711;50.108;13.712;2023-03-18T19:03:14;97747.59;;;5.08;72.07
59831;BME280;45711;50.108;13.712;2023-03-18T19:05:42;97736.25;;;4.91;73.18
59831;BME280;45711;50.108;13.712;2023-03-18T19:08:17;97743.66;;;4.89;73.65
59831;BME280;45711;50.108;13.712;2023-03-18T19:10:46;97747.56;;;5.03;72.55
59831;BME280;45711;50.108;13.712;2023-03-18T19:13:13;97739.91;;;4.85;72.88
59831;BME280;45711;50.108;13.712;2023-03-18T19:15:39;97741.16;;;4.60;74.24
59831;BME280;45711;50.108;13.712;2023-03-18T19:18:11;97735.38;;;4.63;73.20
59831;BME280;45711;50.108;13.712;2023-03-18T19:20:39;97721.03;;;4.42;74.05
59831;BME280;45711;50.108;13.712;2023-03-18T19:23:08;97726.38;;;4.47;74.92
59831;BME280;45711;50.108;13.712;2023-03-18T19:25:37;97732.50;;;4.48;74.53
59831;BME280;45711;50.108;13.712;2023-03-18T19:28:03;97723.13;;;4.79;74.01
59831;BME280;45711;50.108;13.712;2023-03-18T19:30:30;97718.88;;;4.61;73.96
59831;BME280;45711;50.108;13.712;2023-03-18T19:32:56;97723.09;;;4.57;74.64
59831;BME280;45711;50.108;13.712;2023-03-18T19:35:24;97712.22;;;4.75;73.42
59831;BME280;45711;50.108;13.712;2023-03-18T19:37:58;97716.63;;;4.70;75.17
59831;BME280;45711;50.108;13.712;2023-03-18T19:40:27;97711.41;;;4.75;77.70
59831;BME280;45711;50.108;13.712;2023-03-18T19:42:53;97715.19;;;4.40;76.99
59831;BME280;45711;50.108;13.712;2023-03-18T19:45:19;97723.38;;;4.05;77.66
59831;BME280;45711;50.108;13.712;2023-03-18T19:47:46;97722.25;;;4.01;76.58
59831;BME280;45711;50.108;13.712;2023-03-18T19:50:13;97721.59;;;3.94;77.73
59831;BME280;45711;50.108;13.712;2023-03-18T19:52:38;97718.81;;;3.84;78.57
59831;BME280;45711;50.108;13.712;2023-03-18T19:55:08;97714.94;;;3.74;78.20
59831;BME280;45711;50.108;13.712;2023-03-18T19:57:36;97722.47;;;3.66;77.71
59831;BME280;45711;50.108;13.712;2023-03-18T20:00:03;97716.13;;;3.67;78.18
59831;BME280;45711;50.108;13.712;2023-03-18T20:02:32;97721.13;;;3.80;78.29
59831;BME280;45711;50.108;13.712;2023-03-18T20:05:01;97731.00;;;4.01;77.36
59831;BME280;45711;50.108;13.712;2023-03-18T20:07:29;97736.53;;;4.00;77.07
59831;BME280;45711;50.108;13.712;2023-03-18T20:09:57;97741.50;;;4.13;76.21
59831;BME280;45711;50.108;13.712;2023-03-18T20:12:29;97745.38;;;4.06;76.20
59831;BME280;45711;50.108;13.712;2023-03-18T20:14:56;97750.06;;;3.87;76.35
59831;BME280;45711;50.108;13.712;2023-03-18T20:17:27;97738.28;;;3.77;77.33
59831;BME280;45711;50.108;13.712;2023-03-18T20:19:53;97745.06;;;3.73;77.32
59831;BME280;45711;50.108;13.712;2023-03-18T20:22:21;97742.44;;;3.73;78.04
59831;BME280;45711;50.108;13.712;2023-03-18T20:24:47;97743.44;;;3.84;76.81
59831;BME280;45711;50.108;13.712;2023-03-18T20:27:13;97746.03;;;3.67;78.10
59831;BME280;45711;50.108;13.712;2023-03-18T20:29:41;97755.91;;;3.72;78.26
59831;BME280;45711;50.108;13.712;2023-03-18T20:32:07;97754.50;;;3.98;79.06
59831;BME280;45711;50.108;13.712;2023-03-18T20:34:33;97757.22;;;4.03;80.90
59831;BME280;45711;50.108;13.712;2023-03-18T20:37:03;97761.72;;;4.02;81.09
59831;BME280;45711;50.108;13.712;2023-03-18T20:39:30;97760.53;;;3.65;80.68
59831;BME280;45711;50.108;13.712;2023-03-18T20:41:56;97758.31;;;3.16;81.41
59831;BME280;45711;50.108;13.712;2023-03-18T20:44:21;97757.13;;;3.24;82.65
59831;BME280;45711;50.108;13.712;2023-03-18T20:46:47;97751.88;;;3.12;81.89
59831;BME280;45711;50.108;13.712;2023-03-18T20:49:12;97744.22;;;2.99;81.79
59831;BME280;45711;50.108;13.712;2023-03-18T20:51:38;97736.25;;;3.11;81.70
59831;BME280;45711;50.108;13.712;2023-03-18T20:54:14;97739.50;;;3.01;81.71
59831;BME280;45711;50.108;13.712;2023-03-18T20:56:41;97731.78;;;2.99;82.36
59831;BME280;45711;50.108;13.712;2023-03-18T20:59:07;97736.94;;;2.66;82.36
59831;BME280;45711;50.108;13.712;2023-03-18T21:01:34;97735.53;;;2.63;82.20
59831;BME280;45711;50.108;13.712;2023-03-18T21:04:00;97741.63;;;2.52;83.11
59831;BME280;45711;50.108;13.712;2023-03-18T21:06:26;97742.44;;;2.53;82.96
59831;BME280;45711;50.108;13.712;2023-03-18T21:08:53;97736.13;;;2.54;82.71
59831;BME280;45711;50.108;13.712;2023-03-18T21:11:21;97745.66;;;2.43;83.04
59831;BME280;45711;50.108;13.712;2023-03-18T21:13:49;97740.47;;;2.24;83.65
59831;BME280;45711;50.108;13.712;2023-03-18T21:16:16;97739.47;;;2.14;83.43
59831;BME280;45711;50.108;13.712;2023-03-18T21:18:42;97733.13;;;2.03;84.12
59831;BME280;45711;50.108;13.712;2023-03-18T21:21:19;97735.88;;;2.08;84.42
59831;BME280;45711;50.108;13.712;2023-03-18T21:23:46;97740.78;;;2.05;84.65
59831;BME280;45711;50.108;13.712;2023-03-18T21:26:12;97741.06;;;2.15;84.95
59831;BME280;45711;50.108;13.712;2023-03-18T21:28:37;97745.28;;;2.16;84.45
59831;BME280;45711;50.108;13.712;2023-03-18T21:31:05;97744.72;;;2.02;84.98
59831;BME280;45711;50.108;13.712;2023-03-18T21:33:41;97740.94;;;2.10;84.86
59831;BME280;45711;50.108;13.712;2023-03-18T21:36:11;97743.72;;;2.26;85.08
59831;BME280;45711;50.108;13.712;2023-03-18T21:38:37;97750.47;;;2.22;84.06
59831;BME280;45711;50.108;13.712;2023-03-18T21:41:05;97752.25;;;1.87;85.22
59831;BME280;45711;50.108;13.712;2023-03-18T21:43:39;97738.13;;;1.81;85.98
59831;BME280;45711;50.108;13.712;2023-03-18T21:46:11;97735.25;;;1.71;86.31
59831;BME280;45711;50.108;13.712;2023-03-18T21:48:37;97735.31;;;1.64;86.47
59831;BME280;45711;50.108;13.712;2023-03-18T21:51:05;97740.03;;;1.74;86.64
59831;BME280;45711;50.108;13.712;2023-03-18T21:53:32;97732.50;;;1.77;86.64
59831;BME280;45711;50.108;13.712;2023-03-18T21:55:58;97730.09;;;1.76;86.15
59831;BME280;45711;50.108;13.712;2023-03-18T21:58:26;97725.28;;;1.85;86.32
59831;BME280;45711;50.108;13.712;2023-03-18T22:00:53;97731.47;;;1.79;86.55
59831;BME280;45711;50.108;13.712;2023-03-18T22:03:25;97728.38;;;1.82;85.40
59831;BME280;45711;50.108;13.712;2023-03-18T22:05:52;97730.22;;;1.81;85.74
59831;BME280;45711;50.108;13.712;2023-03-18T22:08:19;97735.28;;;1.94;86.27
59831;BME280;45711;50.108;13.712;2023-03-18T22:10:49;97738.31;;;2.10;85.20
59831;BME280;45711;50.108;13.712;2023-03-18T22:13:16;97738.63;;;2.13;85.01
59831;BME280;45711;50.108;13.712;2023-03-18T22:15:44;97738.38;;;1.80;84.42
59831;BME280;45711;50.108;13.712;2023-03-18T22:18:10;97742.75;;;1.56;86.30
59831;BME280;45711;50.108;13.712;2023-03-18T22:20:38;97737.84;;;1.59;86.58
59831;BME280;45711;50.108;13.712;2023-03-18T22:23:17;97741.41;;;1.35;87.44
59831;BME280;45711;50.108;13.712;2023-03-18T22:25:47;97733.44;;;1.41;87.54
59831;BME280;45711;50.108;13.712;2023-03-18T22:28:13;97728.16;;;1.41;87.22
59831;BME280;45711;50.108;13.712;2023-03-18T22:30:43;97741.28;;;1.30;88.37
59831;BME280;45711;50.108;13.712;2023-03-18T22:33:17;97738.03;;;1.46;88.39
59831;BME280;45711;50.108;13.712;2023-03-18T22:35:44;97736.06;;;1.41;87.65
59831;BME280;45711;50.108;13.712;2023-03-18T22:38:12;97733.91;;;1.50;87.31
59831;BME280;45711;50.108;13.712;2023-03-18T22:40:39;97734.78;;;1.32;87.68
59831;BME280;45711;50.108;13.712;2023-03-18T22:43:16;97729.31;;;1.15;88.27
59831;BME280;45711;50.108;13.712;2023-03-18T22:45:44;97724.97;;;1.21;88.39
59831;BME280;45711;50.108;13.712;2023-03-18T22:48:14;97722.69;;;1.24;88.28
59831;BME280;45711;50.108;13.712;2023-03-18T22:50:40;97728.59;;;1.38;88.11
59831;BME280;45711;50.108;13.712;2023-03-18T22:53:14;97722.31;;;1.51;87.48
59831;BME280;45711;50.108;13.712;2023-03-18T22:55:42;97734.16;;;1.60;87.13
59831;BME280;45711;50.108;13.712;2023-03-18T22:58:13;97735.84;;;1.85;85.89
59831;BME280;45711;50.108;13.712;2023-03-18T23:00:42;97730.44;;;1.80;85.78
59831;BME280;45711;50.108;13.712;2023-03-18T23:03:10;97735.34;;;1.34;86.94
59831;BME280;45711;50.108;13.712;2023-03-18T23:05:37;97735.06;;;1.24;87.85
59831;BME280;45711;50.108;13.712;2023-03-18T23:08:02;97734.66;;;1.09;88.46
59831;BME280;45711;50.108;13.712;2023-03-18T23:10:29;97732.06;;;1.20;88.54
59831;BME280;45711;50.108;13.712;2023-03-18T23:12:55;97723.25;;;1.45;87.45
59831;BME280;45711;50.108;13.712;2023-03-18T23:15:21;97726.00;;;1.50;86.75
59831;BME280;45711;50.108;13.712;2023-03-18T23:17:47;97724.97;;;1.51;87.66
59831;BME280;45711;50.108;13.712;2023-03-18T23:20:15;97729.50;;;1.74;86.96
59831;BME280;45711;50.108;13.712;2023-03-18T23:22:42;97734.66;;;1.39;87.61
59831;BME280;45711;50.108;13.712;2023-03-18T23:25:11;97733.50;;;1.35;88.40
59831;BME280;45711;50.108;13.712;2023-03-18T23:27:51;97736.97;;;1.17;88.98
59831;BME280;45711;50.108;13.712;2023-03-18T23:30:17;97733.19;;;1.13;89.29
59831;BME280;45711;50.108;13.712;2023-03-18T23:32:42;97729.75;;;1.12;89.18
59831;BME280;45711;50.108;13.712;2023-03-18T23:35:08;97727.63;;;1.03;89.80
59831;BME280;45711;50.108;13.712;2023-03-18T23:37:34;97726.91;;;0.95;90.13
59831;BME280;45711;50.108;13.712;2023-03-18T23:40:00;97732.69;;;1.04;90.44
59831;BME280;45711;50.108;13.712;2023-03-18T23:42:25;97738.19;;;1.03;90.09
59831;BME280;45711;50.108;13.712;2023-03-18T23:44:52;97737.28;;;1.09;90.02
59831;BME280;45711;50.108;13.712;2023-03-18T23:47:18;97734.34;;;1.17;89.72
59831;BME280;45711;50.108;13.712;2023-03-18T23:49:44;97744.69;;;1.48;88.94
59831;BME280;45711;50.108;13.712;2023-03-18T23:52:11;97734.66;;;1.39;88.36
59831;BME280;45711;50.108;13.712;2023-03-18T23:54:38;97734.81;;;1.14;88.87
59831;BME280;45711;50.108;13.712;2023-03-18T23:57:04;97742.72;;;1.14;89.76
59831;BME280;45711;50.108;13.712;2023-03-18T23:59:30;97733.38;;;1.30;89.31
